sensor_id;sensor_type;location;lat;lon;timestamp;pressure;altitude;pressure_sealevel;temperature;humidity
3524;BME280;1776;53.330;11.498;2023-01-28T00:01:04;23103.22;;;-147.39;60.31
3524;BME280;1776;53.330;11.498;2023-01-28T00:03:29;23101.19;;;-147.39;60.27
3524;BME280;1776;53.330;11.498;2023-01-28T00:06:04;23109.34;;;-147.39;60.27
3524;BME280;1776;53.330;11.498;2023-01-28T00:08:30;23091.03;;;-147.39;60.02
3524;BME280;1776;53.330;11.498;2023-01-28T00:10:58;23123.56;;;-147.39;59.92
3524;BME280;1776;53.330;11.498;2023-01-28T00:13:24;23215.03;;;-147.39;59.70
3524;BME280;1776;53.330;11.498;2023-01-28T00:16:04;23135.75;;;-147.39;59.84
3524;BME280;1776;53.330;11.498;2023-01-28T00:18:31;23117.47;;;-147.39;60.28
3524;BME280;1776;53.330;11.498;2023-01-28T00:20:58;23127.63;;;-147.39;60.03
3524;BME280;1776;53.330;11.498;2023-01-28T00:23:25;23080.88;;;-147.39;60.46
3524;BME280;1776;53.330;11.498;2023-01-28T00:25:51;23086.97;;;-147.39;60.46
3524;BME280;1776;53.330;11.498;2023-01-28T00:28:16;23091.03;;;-147.39;59.99
3524;BME280;1776;53.330;11.498;2023-01-28T00:30:42;22629.63;;;-147.39;59.77
3524;BME280;1776;53.330;11.498;2023-01-28T00:33:07;23095.09;;;-147.39;59.85
3524;BME280;1776;53.330;11.498;2023-01-28T00:35:32;23111.38;;;-147.39;60.08
3524;BME280;1776;53.330;11.498;2023-01-28T00:37:57;23121.53;;;-147.39;60.09
3524;BME280;1776;53.330;11.498;2023-01-28T00:40:24;23135.75;;;-147.39;60.06
3524;BME280;1776;53.330;11.498;2023-01-28T00:42:49;23101.19;;;-147.39;60.40
3524;BME280;1776;53.330;11.498;2023-01-28T00:45:14;23101.19;;;-147.39;60.21
3524;BME280;1776;53.330;11.498;2023-01-28T00:47:40;23109.34;;;-147.39;60.36
3524;BME280;1776;53.330;11.498;2023-01-28T00:50:05;23117.47;;;-147.39;60.08
3524;BME280;1776;53.330;11.498;2023-01-28T00:52:31;23091.03;;;-147.39;60.48
3524;BME280;1776;53.330;11.498;2023-01-28T00:54:56;23097.13;;;-147.39;60.52
3524;BME280;1776;53.330;11.498;2023-01-28T00:57:21;23074.78;;;-147.39;60.44
3524;BME280;1776;53.330;11.498;2023-01-28T00:59:47;23192.69;;;-147.39;60.58
3524;BME280;1776;53.330;11.498;2023-01-28T01:02:12;23117.47;;;-147.39;60.63
3524;BME280;1776;53.330;11.498;2023-01-28T01:04:41;23363.44;;;-147.39;60.04
3524;BME280;1776;53.330;11.498;2023-01-28T01:07:19;23337.00;;;-147.39;60.06
3524;BME280;1776;53.330;11.498;2023-01-28T01:09:45;23158.13;;;-147.39;60.13
3524;BME280;1776;53.330;11.498;2023-01-28T01:12:10;23109.34;;;-147.39;60.24
3524;BME280;1776;53.330;11.498;2023-01-28T01:14:35;23152.03;;;-147.39;59.98
3524;BME280;1776;53.330;11.498;2023-01-28T01:17:00;23129.66;;;-147.39;59.99
3524;BME280;1776;53.330;11.498;2023-01-28T01:19:26;23135.75;;;-147.39;59.76
3524;BME280;1776;53.330;11.498;2023-01-28T01:21:52;23133.72;;;-147.39;59.72
3524;BME280;1776;53.330;11.498;2023-01-28T01:24:17;23137.78;;;-147.39;59.70
3524;BME280;1776;53.330;11.498;2023-01-28T01:26:43;23123.56;;;-147.39;59.57
3524;BME280;1776;53.330;11.498;2023-01-28T01:29:08;23117.47;;;-147.39;59.57
3524;BME280;1776;53.330;11.498;2023-01-28T01:31:34;23251.63;;;-147.39;59.55
3524;BME280;1776;53.330;11.498;2023-01-28T01:33:59;23149.97;;;-147.39;59.32
3524;BME280;1776;53.330;11.498;2023-01-28T01:36:24;23147.94;;;-147.39;59.36
3524;BME280;1776;53.330;11.498;2023-01-28T01:38:53;23113.41;;;-147.39;59.04
3524;BME280;1776;53.330;11.498;2023-01-28T01:41:30;23152.03;;;-147.39;59.26
3524;BME280;1776;53.330;11.498;2023-01-28T01:43:57;23129.66;;;-147.39;59.53
3524;BME280;1776;53.330;11.498;2023-01-28T01:46:33;23089.00;;;-147.39;59.90
3524;BME280;1776;53.330;11.498;2023-01-28T01:49:07;23143.88;;;-147.39;59.12
3524;BME280;1776;53.330;11.498;2023-01-28T01:51:37;23135.75;;;-147.39;58.90
3524;BME280;1776;53.330;11.498;2023-01-28T01:54:03;23050.38;;;-147.39;59.10
3524;BME280;1776;53.330;11.498;2023-01-28T01:56:32;23180.47;;;-147.39;59.27
3524;BME280;1776;53.330;11.498;2023-01-28T01:59:00;23143.88;;;-147.39;59.35
3524;BME280;1776;53.330;11.498;2023-01-28T02:01:28;23149.97;;;-147.39;59.02
3524;BME280;1776;53.330;11.498;2023-01-28T02:04:11;23233.34;;;-147.39;59.84
3524;BME280;1776;53.330;11.498;2023-01-28T02:06:38;23186.56;;;-147.39;59.37
3524;BME280;1776;53.330;11.498;2023-01-28T02:09:22;23227.22;;;-147.39;59.54
3524;BME280;1776;53.330;11.498;2023-01-28T02:11:47;23101.19;;;-147.39;59.72
3524;BME280;1776;53.330;11.498;2023-01-28T02:14:13;23141.84;;;-147.39;59.98
3524;BME280;1776;53.330;11.498;2023-01-28T02:16:38;23115.44;;;-147.39;59.82
3524;BME280;1776;53.330;11.498;2023-01-28T02:19:05;23152.03;;;-147.39;59.54
3524;BME280;1776;53.330;11.498;2023-01-28T02:22:14;23271.94;;;-147.39;59.83
3524;BME280;1776;53.330;11.498;2023-01-28T02:25:00;23149.97;;;-147.39;59.68
3524;BME280;1776;53.330;11.498;2023-01-28T02:27:46;23141.84;;;-147.39;59.94
3524;BME280;1776;53.330;11.498;2023-01-28T02:30:20;23200.81;;;-147.39;59.50
3524;BME280;1776;53.330;11.498;2023-01-28T02:32:55;23143.88;;;-147.39;59.67
3524;BME280;1776;53.330;11.498;2023-01-28T02:35:29;23131.69;;;-147.39;59.59
3524;BME280;1776;53.330;11.498;2023-01-28T02:38:08;23141.84;;;-147.39;59.79
3524;BME280;1776;53.330;11.498;2023-01-28T02:40:38;23133.72;;;-147.39;59.93
3524;BME280;1776;53.330;11.498;2023-01-28T02:43:40;23180.47;;;-147.39;59.68
3524;BME280;1776;53.330;11.498;2023-01-28T02:46:17;23145.91;;;-147.39;59.53
3524;BME280;1776;53.330;11.498;2023-01-28T02:49:06;23117.47;;;-147.39;59.61
3524;BME280;1776;53.330;11.498;2023-01-28T02:51:37;23190.63;;;-147.39;58.91
3524;BME280;1776;53.330;11.498;2023-01-28T02:54:13;23198.78;;;-147.39;59.53
3524;BME280;1776;53.330;11.498;2023-01-28T02:56:56;23129.66;;;-147.39;59.50
3524;BME280;1776;53.330;11.498;2023-01-28T03:02:42;23117.47;;;-147.39;59.40
3524;BME280;1776;53.330;11.498;2023-01-28T03:05:19;23113.41;;;-147.39;59.33
3524;BME280;1776;53.330;11.498;2023-01-28T03:07:47;23145.91;;;-147.39;59.53
3524;BME280;1776;53.330;11.498;2023-01-28T03:10:17;23164.22;;;-147.39;59.27
3524;BME280;1776;53.330;11.498;2023-01-28T03:12:48;23127.63;;;-147.39;59.58
3524;BME280;1776;53.330;11.498;2023-01-28T03:15:41;23170.31;;;-147.39;59.10
3524;BME280;1776;53.330;11.498;2023-01-28T03:18:31;23156.09;;;-147.39;59.19
3524;BME280;1776;53.330;11.498;2023-01-28T03:21:29;23137.78;;;-147.39;59.07
3524;BME280;1776;53.330;11.498;2023-01-28T03:24:20;23131.69;;;-147.39;59.12
3524;BME280;1776;53.330;11.498;2023-01-28T03:27:11;23204.88;;;-147.39;59.15
3524;BME280;1776;53.330;11.498;2023-01-28T03:30:00;23149.97;;;-147.39;59.09
3524;BME280;1776;53.330;11.498;2023-01-28T03:32:46;23194.72;;;-147.39;58.91
3524;BME280;1776;53.330;11.498;2023-01-28T03:35:33;23121.53;;;-147.39;58.81
3524;BME280;1776;53.330;11.498;2023-01-28T03:38:19;23174.38;;;-147.39;58.80
3524;BME280;1776;53.330;11.498;2023-01-28T03:41:07;23143.88;;;-147.39;59.13
3524;BME280;1776;53.330;11.498;2023-01-28T03:43:33;23143.88;;;-147.39;59.29
3524;BME280;1776;53.330;11.498;2023-01-28T03:45:58;23026.00;;;-147.39;59.42
3524;BME280;1776;53.330;11.498;2023-01-28T03:48:25;23154.06;;;-147.39;59.31
3524;BME280;1776;53.330;11.498;2023-01-28T03:50:52;23274.00;;;-147.39;59.08
3524;BME280;1776;53.330;11.498;2023-01-28T03:53:18;23196.75;;;-147.39;59.03
3524;BME280;1776;53.330;11.498;2023-01-28T03:55:45;23127.63;;;-147.39;58.85
3524;BME280;1776;53.330;11.498;2023-01-28T03:58:11;23170.31;;;-147.39;59.00
3524;BME280;1776;53.330;11.498;2023-01-28T04:00:37;23154.06;;;-147.39;59.02
3524;BME280;1776;53.330;11.498;2023-01-28T04:03:09;23190.63;;;-147.39;58.87
3524;BME280;1776;53.330;11.498;2023-01-28T04:06:03;23154.06;;;-147.39;58.97
3524;BME280;1776;53.330;11.498;2023-01-28T04:08:29;23215.03;;;-147.39;58.99
3524;BME280;1776;53.330;11.498;2023-01-28T04:10:54;23233.34;;;-147.39;58.80
3524;BME280;1776;53.330;11.498;2023-01-28T04:13:20;23192.69;;;-147.39;58.87
3524;BME280;1776;53.330;11.498;2023-01-28T04:15:46;23137.78;;;-147.39;58.92
3524;BME280;1776;53.330;11.498;2023-01-28T04:18:11;23253.66;;;-147.39;59.00
3524;BME280;1776;53.330;11.498;2023-01-28T04:20:37;23154.06;;;-147.39;58.78
3524;BME280;1776;53.330;11.498;2023-01-28T04:23:03;23235.38;;;-147.39;59.01
3524;BME280;1776;53.330;11.498;2023-01-28T04:25:29;23176.41;;;-147.39;59.07
3524;BME280;1776;53.330;11.498;2023-01-28T04:27:55;23210.97;;;-147.39;58.74
3524;BME280;1776;53.330;11.498;2023-01-28T04:30:21;23162.19;;;-147.39;58.75
3524;BME280;1776;53.330;11.498;2023-01-28T04:32:46;23141.84;;;-147.39;58.87
3524;BME280;1776;53.330;11.498;2023-01-28T04:35:12;23141.84;;;-147.39;59.22
3524;BME280;1776;53.330;11.498;2023-01-28T04:37:40;23147.94;;;-147.39;58.71
3524;BME280;1776;53.330;11.498;2023-01-28T04:40:06;23349.19;;;-147.39;58.53
3524;BME280;1776;53.330;11.498;2023-01-28T04:42:31;23237.41;;;-147.39;58.08
3524;BME280;1776;53.330;11.498;2023-01-28T04:44:56;23208.94;;;-147.39;58.20
3524;BME280;1776;53.330;11.498;2023-01-28T04:47:22;23160.16;;;-147.39;58.33
3524;BME280;1776;53.330;11.498;2023-01-28T04:49:47;23235.38;;;-147.39;58.23
3524;BME280;1776;53.330;11.498;2023-01-28T04:52:12;23261.78;;;-147.39;58.59
3524;BME280;1776;53.330;11.498;2023-01-28T04:54:37;23180.47;;;-147.39;58.76
3524;BME280;1776;53.330;11.498;2023-01-28T04:57:03;23184.53;;;-147.39;58.21
3524;BME280;1776;53.330;11.498;2023-01-28T04:59:28;23206.91;;;-147.39;58.27
3524;BME280;1776;53.330;11.498;2023-01-28T05:01:53;23190.63;;;-147.39;58.10
3524;BME280;1776;53.330;11.498;2023-01-28T05:04:18;23184.53;;;-147.39;58.31
3524;BME280;1776;53.330;11.498;2023-01-28T05:06:44;23200.81;;;-147.39;58.01
3524;BME280;1776;53.330;11.498;2023-01-28T05:09:09;23198.78;;;-147.39;58.01
3524;BME280;1776;53.330;11.498;2023-01-28T05:11:34;23198.78;;;-147.39;58.01
3524;BME280;1776;53.330;11.498;2023-01-28T05:14:00;23206.91;;;-147.39;58.23
3524;BME280;1776;53.330;11.498;2023-01-28T05:16:26;23196.75;;;-147.39;58.23
3524;BME280;1776;53.330;11.498;2023-01-28T05:18:51;23198.78;;;-147.39;58.37
3524;BME280;1776;53.330;11.498;2023-01-28T05:21:17;23182.50;;;-147.39;58.12
3524;BME280;1776;53.330;11.498;2023-01-28T05:23:42;23312.63;;;-147.39;57.97
3524;BME280;1776;53.330;11.498;2023-01-28T05:26:08;23294.31;;;-147.39;57.71
3524;BME280;1776;53.330;11.498;2023-01-28T05:28:33;23261.78;;;-147.39;57.84
3524;BME280;1776;53.330;11.498;2023-01-28T05:31:06;23133.72;;;-147.39;58.52
3524;BME280;1776;53.330;11.498;2023-01-28T05:33:31;23251.63;;;-147.39;57.84
3524;BME280;1776;53.330;11.498;2023-01-28T05:35:57;23213.00;;;-147.39;57.80
3524;BME280;1776;53.330;11.498;2023-01-28T05:38:22;23202.84;;;-147.39;57.76
3524;BME280;1776;53.330;11.498;2023-01-28T05:40:47;23156.09;;;-147.39;57.65
3524;BME280;1776;53.330;11.498;2023-01-28T05:43:13;23213.00;;;-147.39;57.70
3524;BME280;1776;53.330;11.498;2023-01-28T05:45:38;23210.97;;;-147.39;57.89
3524;BME280;1776;53.330;11.498;2023-01-28T05:48:04;23219.09;;;-147.39;57.85
3524;BME280;1776;53.330;11.498;2023-01-28T05:50:29;23192.69;;;-147.39;58.09
3524;BME280;1776;53.330;11.498;2023-01-28T05:52:55;23434.59;;;-147.39;58.38
3524;BME280;1776;53.330;11.498;2023-01-28T05:55:20;23217.06;;;-147.39;58.01
3524;BME280;1776;53.330;11.498;2023-01-28T05:57:45;23357.34;;;-147.39;57.78
3524;BME280;1776;53.330;11.498;2023-01-28T06:00:12;23428.47;;;-147.39;57.76
3524;BME280;1776;53.330;11.498;2023-01-28T06:02:38;23294.31;;;-147.39;57.54
3524;BME280;1776;53.330;11.498;2023-01-28T06:05:04;23225.19;;;-147.39;57.43
3524;BME280;1776;53.330;11.498;2023-01-28T06:07:29;23239.44;;;-147.39;57.03
3524;BME280;1776;53.330;11.498;2023-01-28T06:09:54;23227.22;;;-147.39;56.78
3524;BME280;1776;53.330;11.498;2023-01-28T06:12:20;23202.84;;;-147.39;57.44
3524;BME280;1776;53.330;11.498;2023-01-28T06:14:45;23278.06;;;-147.39;57.62
3524;BME280;1776;53.330;11.498;2023-01-28T06:17:10;23233.34;;;-147.39;56.93
3524;BME280;1776;53.330;11.498;2023-01-28T06:19:35;23219.09;;;-147.39;56.88
3524;BME280;1776;53.330;11.498;2023-01-28T06:22:01;23241.47;;;-147.39;56.75
3524;BME280;1776;53.330;11.498;2023-01-28T06:24:26;23221.13;;;-147.39;57.22
3524;BME280;1776;53.330;11.498;2023-01-28T06:26:51;23213.00;;;-147.39;57.06
3524;BME280;1776;53.330;11.498;2023-01-28T06:29:17;23284.16;;;-147.39;57.13
3524;BME280;1776;53.330;11.498;2023-01-28T06:31:42;23198.78;;;-147.39;57.27
3524;BME280;1776;53.330;11.498;2023-01-28T06:34:08;23316.69;;;-147.39;56.86
3524;BME280;1776;53.330;11.498;2023-01-28T06:36:35;23241.47;;;-147.39;57.05
3524;BME280;1776;53.330;11.498;2023-01-28T06:39:00;23217.06;;;-147.39;57.41
3524;BME280;1776;53.330;11.498;2023-01-28T06:41:25;23202.84;;;-147.39;57.41
3524;BME280;1776;53.330;11.498;2023-01-28T06:43:50;23259.75;;;-147.39;57.12
3524;BME280;1776;53.330;11.498;2023-01-28T06:46:16;22991.44;;;-147.39;57.04
3524;BME280;1776;53.330;11.498;2023-01-28T06:48:41;23255.69;;;-147.39;57.16
3524;BME280;1776;53.330;11.498;2023-01-28T06:51:06;23249.59;;;-147.39;57.69
3524;BME280;1776;53.330;11.498;2023-01-28T06:53:31;23249.59;;;-147.39;57.58
3524;BME280;1776;53.330;11.498;2023-01-28T06:55:57;23387.81;;;-147.39;57.40
3524;BME280;1776;53.330;11.498;2023-01-28T06:58:22;23261.78;;;-147.39;57.23
3524;BME280;1776;53.330;11.498;2023-01-28T07:00:47;22399.97;;;-147.39;57.25
3524;BME280;1776;53.330;11.498;2023-01-28T07:03:12;23243.50;;;-147.39;56.92
3524;BME280;1776;53.330;11.498;2023-01-28T07:05:38;23241.47;;;-147.39;57.08
3524;BME280;1776;53.330;11.498;2023-01-28T07:08:03;23223.16;;;-147.39;56.72
3524;BME280;1776;53.330;11.498;2023-01-28T07:10:29;23217.06;;;-147.39;56.91
3524;BME280;1776;53.330;11.498;2023-01-28T07:12:54;23210.97;;;-147.39;57.25
3524;BME280;1776;53.330;11.498;2023-01-28T07:15:19;23231.28;;;-147.39;56.96
3524;BME280;1776;53.330;11.498;2023-01-28T07:17:44;23255.69;;;-147.39;56.96
3524;BME280;1776;53.330;11.498;2023-01-28T07:20:11;23233.34;;;-147.39;57.75
3524;BME280;1776;53.330;11.498;2023-01-28T07:22:42;23229.25;;;-147.39;57.97
3524;BME280;1776;53.330;11.498;2023-01-28T07:25:08;23213.00;;;-147.39;58.21
3524;BME280;1776;53.330;11.498;2023-01-28T07:27:33;23261.78;;;-147.39;58.10
3524;BME280;1776;53.330;11.498;2023-01-28T07:29:59;23208.94;;;-147.39;57.97
3524;BME280;1776;53.330;11.498;2023-01-28T07:32:24;23215.03;;;-147.39;58.25
3524;BME280;1776;53.330;11.498;2023-01-28T07:34:51;23225.19;;;-147.39;58.29
3524;BME280;1776;53.330;11.498;2023-01-28T07:37:16;23225.19;;;-147.39;58.38
3524;BME280;1776;53.330;11.498;2023-01-28T07:39:42;23400.03;;;-147.39;58.10
3524;BME280;1776;53.330;11.498;2023-01-28T07:42:07;23208.94;;;-147.39;58.28
3524;BME280;1776;53.330;11.498;2023-01-28T07:44:33;23198.78;;;-147.39;57.95
3524;BME280;1776;53.330;11.498;2023-01-28T07:46:59;23398.00;;;-147.39;58.31
3524;BME280;1776;53.330;11.498;2023-01-28T07:49:25;23188.59;;;-147.39;57.97
3524;BME280;1776;53.330;11.498;2023-01-28T07:51:50;23046.31;;;-147.39;59.11
3524;BME280;1776;53.330;11.498;2023-01-28T07:54:16;23245.53;;;-147.39;57.65
3524;BME280;1776;53.330;11.498;2023-01-28T07:56:41;23084.94;;;-147.39;57.83
3524;BME280;1776;53.330;11.498;2023-01-28T07:59:06;23247.56;;;-147.39;57.61
3524;BME280;1776;53.330;11.498;2023-01-28T08:01:32;23221.13;;;-147.39;57.60
3524;BME280;1776;53.330;11.498;2023-01-28T08:03:57;23227.22;;;-147.39;57.65
3524;BME280;1776;53.330;11.498;2023-01-28T08:06:22;23227.22;;;-147.39;57.41
3524;BME280;1776;53.330;11.498;2023-01-28T08:08:47;23231.28;;;-147.39;57.61
3524;BME280;1776;53.330;11.498;2023-01-28T08:11:13;23231.28;;;-147.39;57.84
3524;BME280;1776;53.330;11.498;2023-01-28T08:13:38;23259.75;;;-147.39;57.76
3524;BME280;1776;53.330;11.498;2023-01-28T08:16:04;23231.28;;;-147.39;57.98
3524;BME280;1776;53.330;11.498;2023-01-28T08:18:29;23282.13;;;-147.39;58.13
3524;BME280;1776;53.330;11.498;2023-01-28T08:20:55;23351.22;;;-147.39;57.26
3524;BME280;1776;53.330;11.498;2023-01-28T08:23:21;23247.56;;;-147.39;57.84
3524;BME280;1776;53.330;11.498;2023-01-28T08:25:47;23227.22;;;-147.39;57.82
3524;BME280;1776;53.330;11.498;2023-01-28T08:28:13;23219.09;;;-147.39;57.67
3524;BME280;1776;53.330;11.498;2023-01-28T08:30:40;23219.09;;;-147.39;57.50
3524;BME280;1776;53.330;11.498;2023-01-28T08:33:07;23314.66;;;-147.39;57.44
3524;BME280;1776;53.330;11.498;2023-01-28T08:35:33;23239.44;;;-147.39;57.05
3524;BME280;1776;53.330;11.498;2023-01-28T08:38:00;23310.56;;;-147.39;56.12
3524;BME280;1776;53.330;11.498;2023-01-28T08:40:25;23267.88;;;-147.39;56.35
3524;BME280;1776;53.330;11.498;2023-01-28T08:42:52;23261.78;;;-147.39;56.48
3524;BME280;1776;53.330;11.498;2023-01-28T08:45:19;23373.59;;;-147.39;56.01
3524;BME280;1776;53.330;11.498;2023-01-28T08:47:51;23337.00;;;-147.39;55.46
3524;BME280;1776;53.330;11.498;2023-01-28T08:50:17;22893.88;;;-147.39;55.11
3524;BME280;1776;53.330;11.498;2023-01-28T08:52:43;23296.34;;;-147.39;54.78
3524;BME280;1776;53.330;11.498;2023-01-28T08:55:10;23312.63;;;-147.39;55.54
3524;BME280;1776;53.330;11.498;2023-01-28T08:57:35;23332.94;;;-147.39;55.22
3524;BME280;1776;53.330;11.498;2023-01-28T09:00:01;23235.38;;;-147.39;56.18
3524;BME280;1776;53.330;11.498;2023-01-28T09:02:26;23314.66;;;-147.39;54.60
3524;BME280;1776;53.330;11.498;2023-01-28T09:04:51;23334.97;;;-147.39;55.88
3524;BME280;1776;53.330;11.498;2023-01-28T09:07:16;23286.19;;;-147.39;56.35
3524;BME280;1776;53.330;11.498;2023-01-28T09:09:42;23477.28;;;-147.39;56.43
3524;BME280;1776;53.330;11.498;2023-01-28T09:12:07;23290.25;;;-147.39;55.90
3524;BME280;1776;53.330;11.498;2023-01-28T09:14:35;23294.31;;;-147.39;55.47
3524;BME280;1776;53.330;11.498;2023-01-28T09:17:00;23391.91;;;-147.39;55.04
3524;BME280;1776;53.330;11.498;2023-01-28T09:19:26;23257.72;;;-147.39;55.67
3524;BME280;1776;53.330;11.498;2023-01-28T09:21:51;23251.63;;;-147.39;55.74
3524;BME280;1776;53.330;11.498;2023-01-28T09:24:16;23263.81;;;-147.39;55.92
3524;BME280;1776;53.330;11.498;2023-01-28T09:26:43;23284.16;;;-147.39;56.20
3524;BME280;1776;53.330;11.498;2023-01-28T09:29:08;23402.06;;;-147.39;56.31
3524;BME280;1776;53.330;11.498;2023-01-28T09:31:34;23296.34;;;-147.39;55.79
3524;BME280;1776;53.330;11.498;2023-01-28T09:33:59;23280.09;;;-147.39;55.26
3524;BME280;1776;53.330;11.498;2023-01-28T09:36:24;23263.81;;;-147.39;55.74
3524;BME280;1776;53.330;11.498;2023-01-28T09:38:50;23454.91;;;-147.39;56.16
3524;BME280;1776;53.330;11.498;2023-01-28T09:41:26;23280.09;;;-147.39;55.41
3524;BME280;1776;53.330;11.498;2023-01-28T09:46:46;23404.09;;;-147.39;56.16
3524;BME280;1776;53.330;11.498;2023-01-28T09:49:20;23239.44;;;-147.39;55.71
3524;BME280;1776;53.330;11.498;2023-01-28T09:51:53;23288.22;;;-147.39;55.86
3524;BME280;1776;53.330;11.498;2023-01-28T09:54:45;23269.91;;;-147.39;55.73
3524;BME280;1776;53.330;11.498;2023-01-28T09:57:38;23271.94;;;-147.39;56.35
3524;BME280;1776;53.330;11.498;2023-01-28T10:00:20;23290.25;;;-147.39;55.65
3524;BME280;1776;53.330;11.498;2023-01-28T10:02:59;23314.66;;;-147.39;56.16
3524;BME280;1776;53.330;11.498;2023-01-28T10:10:32;23286.19;;;-147.39;56.03
3524;BME280;1776;53.330;11.498;2023-01-28T10:15:48;23334.97;;;-147.39;55.88
3524;BME280;1776;53.330;11.498;2023-01-28T10:18:15;23369.53;;;-147.39;56.10
3524;BME280;1776;53.330;11.498;2023-01-28T10:20:50;23314.66;;;-147.39;55.54
3524;BME280;1776;53.330;11.498;2023-01-28T10:23:19;23286.19;;;-147.39;55.75
3524;BME280;1776;53.330;11.498;2023-01-28T10:25:47;23363.44;;;-147.39;55.71
3524;BME280;1776;53.330;11.498;2023-01-28T10:28:21;23257.72;;;-147.39;56.28
3524;BME280;1776;53.330;11.498;2023-01-28T10:30:48;23314.66;;;-147.39;55.54
3524;BME280;1776;53.330;11.498;2023-01-28T10:33:24;22613.38;;;-147.39;55.24
3524;BME280;1776;53.330;11.498;2023-01-28T10:35:55;23367.50;;;-147.39;55.38
3524;BME280;1776;53.330;11.498;2023-01-28T10:38:23;23304.47;;;-147.39;55.82
3524;BME280;1776;53.330;11.498;2023-01-28T10:40:49;23387.81;;;-147.39;55.67
3524;BME280;1776;53.330;11.498;2023-01-28T10:43:22;23308.53;;;-147.39;55.86
3524;BME280;1776;53.330;11.498;2023-01-28T10:48:36;23259.75;;;-147.39;56.33
3524;BME280;1776;53.330;11.498;2023-01-28T10:51:04;23282.13;;;-147.39;56.78
3524;BME280;1776;53.330;11.498;2023-01-28T10:55:59;23249.59;;;-147.39;57.00
3524;BME280;1776;53.330;11.498;2023-01-28T10:58:28;23337.00;;;-147.39;56.50
3524;BME280;1776;53.330;11.498;2023-01-28T11:00:56;23247.56;;;-147.39;56.70
3524;BME280;1776;53.330;11.498;2023-01-28T11:03:22;23261.78;;;-147.39;56.67
3524;BME280;1776;53.330;11.498;2023-01-28T11:05:53;23253.66;;;-147.39;56.82
3524;BME280;1776;53.330;11.498;2023-01-28T11:08:19;23276.03;;;-147.39;56.90
3524;BME280;1776;53.330;11.498;2023-01-28T11:10:46;23280.09;;;-147.39;57.03
3524;BME280;1776;53.330;11.498;2023-01-28T11:13:17;23300.41;;;-147.39;56.19
3524;BME280;1776;53.330;11.498;2023-01-28T11:16:14;23318.72;;;-147.39;55.91
3524;BME280;1776;53.330;11.498;2023-01-28T11:18:51;23314.66;;;-147.39;55.16
3524;BME280;1776;53.330;11.498;2023-01-28T11:21:23;23408.16;;;-147.39;55.33
3524;BME280;1776;53.330;11.498;2023-01-28T11:23:52;23345.13;;;-147.39;54.67
3524;BME280;1776;53.330;11.498;2023-01-28T11:26:22;23156.09;;;-147.39;54.02
3524;BME280;1776;53.330;11.498;2023-01-28T11:28:49;23375.63;;;-147.39;53.89
3524;BME280;1776;53.330;11.498;2023-01-28T11:31:18;23465.06;;;-147.39;54.02
3524;BME280;1776;53.330;11.498;2023-01-28T11:36:25;23395.97;;;-147.39;53.42
3524;BME280;1776;53.330;11.498;2023-01-28T11:41:29;23440.69;;;-147.39;53.98
3524;BME280;1776;53.330;11.498;2023-01-28T11:43:57;23434.59;;;-147.39;52.07
3524;BME280;1776;53.330;11.498;2023-01-28T11:49:10;23515.91;;;-147.39;51.39
3524;BME280;1776;53.330;11.498;2023-01-28T11:51:42;23519.97;;;-147.39;51.77
3524;BME280;1776;53.330;11.498;2023-01-28T12:02:27;23609.41;;;-147.39;51.09
3524;BME280;1776;53.330;11.498;2023-01-28T12:08:15;23568.75;;;-147.39;50.97
3524;BME280;1776;53.330;11.498;2023-01-28T12:11:06;23674.47;;;-147.39;50.17
3524;BME280;1776;53.330;11.498;2023-01-28T12:17:19;23629.75;;;-147.39;50.51
3524;BME280;1776;53.330;11.498;2023-01-28T12:22:11;23166.25;;;-147.39;50.18
3524;BME280;1776;53.330;11.498;2023-01-28T12:33:24;23650.09;;;-147.39;49.93
3524;BME280;1776;53.330;11.498;2023-01-28T12:39:02;23617.56;;;-147.39;50.57
3524;BME280;1776;53.330;11.498;2023-01-28T12:41:38;23605.34;;;-147.39;51.32
3524;BME280;1776;53.330;11.498;2023-01-28T12:44:11;23660.25;;;-147.39;50.77
3524;BME280;1776;53.330;11.498;2023-01-28T12:46:50;23617.56;;;-147.39;52.05
3524;BME280;1776;53.330;11.498;2023-01-28T12:49:21;23782.22;;;-147.39;50.36
3524;BME280;1776;53.330;11.498;2023-01-28T12:54:45;23631.78;;;-147.39;49.91
3524;BME280;1776;53.330;11.498;2023-01-28T12:57:23;23625.69;;;-147.39;49.75
3524;BME280;1776;53.330;11.498;2023-01-28T12:59:51;23698.88;;;-147.39;50.44
3524;BME280;1776;53.330;11.498;2023-01-28T13:02:28;23650.09;;;-147.39;50.04
3524;BME280;1776;53.330;11.498;2023-01-28T13:05:10;23694.81;;;-147.39;50.43
3524;BME280;1776;53.330;11.498;2023-01-28T13:10:14;23711.06;;;-147.39;49.07
3524;BME280;1776;53.330;11.498;2023-01-28T13:12:42;23741.56;;;-147.39;49.25
3524;BME280;1776;53.330;11.498;2023-01-28T13:15:12;23822.88;;;-147.39;47.97
3524;BME280;1776;53.330;11.498;2023-01-28T13:17:38;23745.63;;;-147.39;48.68
3524;BME280;1776;53.330;11.498;2023-01-28T13:20:14;23702.94;;;-147.39;50.75
3524;BME280;1776;53.330;11.498;2023-01-28T13:22:43;23711.06;;;-147.39;49.26
3524;BME280;1776;53.330;11.498;2023-01-28T13:25:23;23713.09;;;-147.39;49.95
3524;BME280;1776;53.330;11.498;2023-01-28T13:28:02;23704.97;;;-147.39;49.69
3524;BME280;1776;53.330;11.498;2023-01-28T13:30:49;23814.75;;;-147.39;49.76
3524;BME280;1776;53.330;11.498;2023-01-28T13:33:33;23676.50;;;-147.39;49.95
3524;BME280;1776;53.330;11.498;2023-01-28T13:36:05;23676.50;;;-147.39;50.71
3524;BME280;1776;53.330;11.498;2023-01-28T13:38:34;23684.63;;;-147.39;49.74
3524;BME280;1776;53.330;11.498;2023-01-28T13:41:00;23753.75;;;-147.39;49.66
3524;BME280;1776;53.330;11.498;2023-01-28T13:46:03;23711.06;;;-147.39;48.85
3524;BME280;1776;53.330;11.498;2023-01-28T13:48:44;23707.00;;;-147.39;49.50
3524;BME280;1776;53.330;11.498;2023-01-28T13:51:22;23709.03;;;-147.39;49.83
3524;BME280;1776;53.330;11.498;2023-01-28T13:56:40;23782.22;;;-147.39;49.91
3524;BME280;1776;53.330;11.498;2023-01-28T14:17:41;23646.00;;;-147.39;50.66
3524;BME280;1776;53.330;11.498;2023-01-28T14:20:16;23711.06;;;-147.39;50.77
3524;BME280;1776;53.330;11.498;2023-01-28T14:22:43;23698.88;;;-147.39;50.07
3524;BME280;1776;53.330;11.498;2023-01-28T14:25:14;23751.72;;;-147.39;50.62
3524;BME280;1776;53.330;11.498;2023-01-28T14:27:44;23851.34;;;-147.39;49.50